Terminal Aerodrome Forecast
Issued by NWS Memphis, TN

Home | Current Version | Previous Version | Text Only | Print | Product List | Glossary On
Versions: 1 2 3 4 5 6 7 8 9 10 11 12 13
000
FTUS44 KMEG 251130
TAFMKL
TAF
KMKL 251130Z 2512/2612 27008KT P6SM VCSH BKN070 OVC120
     FM251600 33008KT P6SM VCSH BKN080 BKN150
     FM251800 36010KT P6SM SKC
     FM260000 02003KT P6SM SKC=

USA.gov is the U.S. government's official web portal to all federal, state and local government web resources and services.